createdAt,value
2019-04-03T00:00:35.564Z,8.57
2019-04-03T00:03:05.047Z,8.54
2019-04-03T00:05:35.446Z,8.49
2019-04-03T00:08:06.434Z,8.43
2019-04-03T00:10:38.159Z,8.42
2019-04-03T00:13:07.240Z,8.36
2019-04-03T00:15:36.711Z,8.30
2019-04-03T00:18:05.889Z,8.30
2019-04-03T00:20:35.153Z,8.22
2019-04-03T00:23:04.375Z,8.17
2019-04-03T00:25:33.544Z,8.15
2019-04-03T00:28:02.756Z,8.10
2019-04-03T00:30:31.947Z,8.07
2019-04-03T00:33:01.145Z,8.02
2019-04-03T00:35:30.478Z,7.99
2019-04-03T00:37:59.750Z,7.93
2019-04-03T00:40:28.981Z,7.90
2019-04-03T00:42:58.194Z,7.87
2019-04-03T00:45:27.397Z,7.83
2019-04-03T00:47:56.589Z,7.80
2019-04-03T00:50:26.960Z,7.79
2019-04-03T00:52:57.171Z,7.76
2019-04-03T00:55:27.151Z,7.71
2019-04-03T00:57:56.876Z,7.68
2019-04-03T01:00:26.933Z,7.66
2019-04-03T01:02:58.162Z,7.63
2019-04-03T01:05:28.583Z,7.60
2019-04-03T01:07:59.875Z,7.58
2019-04-03T01:10:30.195Z,7.56
2019-04-03T01:13:00.008Z,7.54
2019-04-03T01:15:31.595Z,7.52
2019-04-03T01:18:02.900Z,7.54
2019-04-03T01:20:32.380Z,7.51
2019-04-03T01:23:01.745Z,7.52
2019-04-03T01:25:30.924Z,7.49
2019-04-03T01:28:00.183Z,7.47
2019-04-03T01:30:29.480Z,7.43
2019-04-03T01:32:58.677Z,7.41
2019-04-03T01:35:27.912Z,7.37
2019-04-03T01:37:57.093Z,7.33
2019-04-03T01:40:26.287Z,7.30
2019-04-03T01:42:55.509Z,7.25
2019-04-03T01:45:25.880Z,7.20
2019-04-03T01:47:57.470Z,7.19
2019-04-03T01:50:26.955Z,7.13
2019-04-03T01:52:57.431Z,7.13
2019-04-03T01:55:26.615Z,7.09
2019-04-03T01:57:55.809Z,7.05
2019-04-03T02:00:25.014Z,7.06
2019-04-03T02:02:54.195Z,7.10
2019-04-03T02:05:23.391Z,7.12
2019-04-03T02:07:52.661Z,7.21
2019-04-03T02:10:22.528Z,7.26
2019-04-03T02:12:51.834Z,7.29
2019-04-03T02:15:21.623Z,7.17
2019-04-03T02:17:54.149Z,7.18
2019-04-03T02:20:22.392Z,7.22
2019-04-03T02:22:51.582Z,7.25
2019-04-03T02:25:20.728Z,7.26
2019-04-03T02:27:50.124Z,7.25
2019-04-03T02:30:19.396Z,7.27
2019-04-03T02:32:48.575Z,7.31
2019-04-03T02:35:18.115Z,7.30
2019-04-03T02:37:49.645Z,7.31
2019-04-03T02:40:18.867Z,7.29
2019-04-03T02:42:48.067Z,7.29
2019-04-03T02:45:17.643Z,7.30
2019-04-03T02:47:46.871Z,7.23
2019-04-03T02:50:25.420Z,7.20
2019-04-03T02:52:57.971Z,7.16
2019-04-03T02:55:25.905Z,7.16
2019-04-03T02:57:55.262Z,7.21
2019-04-03T03:00:24.534Z,7.27
2019-04-03T03:02:53.775Z,7.20
2019-04-03T03:05:26.808Z,7.18
2019-04-03T03:07:54.236Z,7.18
2019-04-03T03:10:23.489Z,7.16
2019-04-03T03:12:52.725Z,7.19
2019-04-03T03:15:21.896Z,7.20
2019-04-03T03:17:54.565Z,7.18
2019-04-03T03:20:23.937Z,7.26
2019-04-03T03:22:53.150Z,7.28
2019-04-03T03:25:22.328Z,7.28
2019-04-03T03:27:52.022Z,7.28
2019-04-03T03:30:39.972Z,7.29
2019-04-03T03:33:09.653Z,7.29
2019-04-03T03:35:29.365Z,7.30
2019-04-03T03:37:54.079Z,7.32
2019-04-03T03:40:23.684Z,7.24
2019-04-03T03:42:52.854Z,7.18
2019-04-03T03:45:22.052Z,7.24
2019-04-03T03:47:51.446Z,7.20
2019-04-03T03:50:25.791Z,7.13
2019-04-03T03:52:55.503Z,7.14
2019-04-03T03:55:25.673Z,7.18
2019-04-03T03:57:55.504Z,7.16
2019-04-03T04:00:25.037Z,7.18
2019-04-03T04:02:54.718Z,7.16
2019-04-03T04:05:23.974Z,7.12
2019-04-03T04:07:53.642Z,7.14
2019-04-03T04:10:25.467Z,7.13
2019-04-03T04:12:53.811Z,7.07
2019-04-03T04:15:23.782Z,7.07
2019-04-03T04:17:53.492Z,7.10
2019-04-03T04:20:23.050Z,7.15
2019-04-03T04:22:52.905Z,7.13
2019-04-03T04:25:22.299Z,7.17
2019-04-03T04:27:51.617Z,7.11
2019-04-03T04:30:21.495Z,7.17
2019-04-03T04:32:50.811Z,7.19
2019-04-03T04:35:21.504Z,7.12
2019-04-03T04:37:50.942Z,7.15
2019-04-03T04:40:20.132Z,7.22
2019-04-03T04:42:49.317Z,7.20
2019-04-03T04:45:18.558Z,7.18
2019-04-03T04:48:07.458Z,7.23
2019-04-03T04:50:36.851Z,7.30
2019-04-03T04:53:12.612Z,7.29
2019-04-03T04:55:42.409Z,7.24
2019-04-03T05:07:16.654Z,7.12
2019-04-03T05:12:26.706Z,7.10
2019-04-03T05:45:11.176Z,7.23
2019-04-03T05:50:16.488Z,7.21
2019-04-03T05:59:05.043Z,7.41
2019-04-03T06:01:42.595Z,7.40
2019-04-03T06:04:30.406Z,7.44
2019-04-03T06:06:59.603Z,7.53
2019-04-03T06:29:51.044Z,7.96
2019-04-03T06:35:18.976Z,7.90
2019-04-03T06:37:53.096Z,8.07
2019-04-03T06:43:22.058Z,8.18
2019-04-03T06:51:45.858Z,8.23
2019-04-03T06:54:15.644Z,8.24
2019-04-03T07:20:42.550Z,8.74
2019-04-03T07:28:42.278Z,8.87
2019-04-03T07:31:11.883Z,8.92
2019-04-03T07:33:41.323Z,8.86
2019-04-03T07:36:11.607Z,8.92
2019-04-03T07:38:40.466Z,8.97
2019-04-03T07:41:09.990Z,9.12
2019-04-03T07:43:39.408Z,9.23
2019-04-03T07:46:08.852Z,9.09
2019-04-03T08:25:32.049Z,10.12
2019-04-03T11:00:52.665Z,12.02
2019-04-03T11:03:21.938Z,11.77
2019-04-03T11:05:53.887Z,12.02
2019-04-03T11:11:07.383Z,12.30
2019-04-03T11:27:51.365Z,12.62
2019-04-03T11:42:06.786Z,12.56
2019-04-03T11:47:13.075Z,12.72
2019-04-03T11:59:07.356Z,12.68
2019-04-03T12:07:03.970Z,12.97
2019-04-03T12:12:11.337Z,13.32
2019-04-03T12:15:00.009Z,13.13
2019-04-03T12:20:45.166Z,12.98
2019-04-03T12:23:14.095Z,12.94
2019-04-03T12:28:58.066Z,12.93
2019-04-03T12:40:16.383Z,12.44
2019-04-03T12:48:45.537Z,12.23
2019-04-03T12:59:31.677Z,11.34
2019-04-03T13:20:57.292Z,14.25
2019-04-03T13:23:49.257Z,13.33
2019-04-03T13:26:40.252Z,13.30
2019-04-03T13:29:39.146Z,13.46
2019-04-03T13:32:41.787Z,14.32
2019-04-03T13:35:22.679Z,15.09
2019-04-03T13:38:07.888Z,15.27
2019-04-03T13:46:39.150Z,19.86
2019-04-03T13:49:17.134Z,19.25
2019-04-03T13:52:07.729Z,19.78
2019-04-03T13:55:28.488Z,19.30
2019-04-03T13:58:05.791Z,17.74
2019-04-03T14:00:59.949Z,16.90
2019-04-03T14:03:46.395Z,16.88
2019-04-03T14:06:16.508Z,16.28
2019-04-03T14:09:18.943Z,15.83
2019-04-03T14:20:11.025Z,14.85
2019-04-03T14:22:40.678Z,14.89
2019-04-03T14:25:18.963Z,14.76
2019-04-03T14:27:40.853Z,14.43
2019-04-03T14:30:11.927Z,14.40
2019-04-03T14:32:44.272Z,14.25
2019-04-03T14:35:40.503Z,13.88
2019-04-03T14:37:43.258Z,13.79
2019-04-03T14:40:13.488Z,13.68
2019-04-03T14:42:43.169Z,13.52
2019-04-03T14:45:14.599Z,13.43
2019-04-03T14:47:43.297Z,13.35
2019-04-03T14:50:12.495Z,13.05
2019-04-03T14:52:42.025Z,12.95
2019-04-03T14:55:21.363Z,12.80
2019-04-03T14:57:42.281Z,12.80
2019-04-03T15:00:25.175Z,12.82
2019-04-03T15:02:42.545Z,12.72
2019-04-03T15:05:11.975Z,12.42
2019-04-03T15:07:41.326Z,11.99
2019-04-03T15:10:10.736Z,11.76
2019-04-03T15:12:40.901Z,11.25
2019-04-03T15:15:10.267Z,11.02
2019-04-03T15:17:39.987Z,11.15
2019-04-03T15:20:09.690Z,11.22
2019-04-03T15:22:39.456Z,11.15
2019-04-03T15:25:08.906Z,11.00
2019-04-03T15:27:38.270Z,10.84
2019-04-03T15:30:11.034Z,10.79
2019-04-03T15:32:40.161Z,10.85
2019-04-03T15:35:09.489Z,11.10
2019-04-03T15:37:41.521Z,11.11
2019-04-03T15:40:11.457Z,11.12
2019-04-03T15:42:41.858Z,11.31
2019-04-03T15:45:11.504Z,11.34
2019-04-03T15:47:45.123Z,11.22
2019-04-03T15:50:12.876Z,11.16
2019-04-03T15:52:44.351Z,11.41
2019-04-03T15:55:13.033Z,11.34
2019-04-03T15:57:42.384Z,11.24
2019-04-03T16:00:16.133Z,11.28
2019-04-03T16:02:46.664Z,11.40
2019-04-03T16:05:16.986Z,11.29
2019-04-03T16:07:46.165Z,11.35
2019-04-03T16:10:15.347Z,11.60
2019-04-03T16:12:44.707Z,11.75
2019-04-03T16:15:13.921Z,11.95
2019-04-03T16:17:43.234Z,11.75
2019-04-03T16:20:14.252Z,11.84
2019-04-03T16:22:43.802Z,11.94
2019-04-03T16:25:15.506Z,11.98
2019-04-03T16:27:44.390Z,11.91
2019-04-03T16:30:16.158Z,11.56
2019-04-03T16:32:46.231Z,11.36
2019-04-03T16:35:15.454Z,11.22
2019-04-03T16:37:44.757Z,11.15
2019-04-03T16:40:14.895Z,11.08
2019-04-03T16:42:47.489Z,11.28
2019-04-03T16:45:15.185Z,11.29
2019-04-03T16:47:45.246Z,11.11
2019-04-03T16:50:14.638Z,11.04
2019-04-03T16:52:46.557Z,11.18
2019-04-03T16:55:15.917Z,11.28
2019-04-03T16:57:45.732Z,11.34
2019-04-03T17:00:14.920Z,11.18
2019-04-03T17:02:44.146Z,11.10
2019-04-03T17:05:13.366Z,11.33
2019-04-03T17:07:42.541Z,11.40
2019-04-03T17:10:12.266Z,11.32
2019-04-03T17:12:41.467Z,11.26
2019-04-03T17:15:10.836Z,11.44
2019-04-03T17:17:40.033Z,11.45
2019-04-03T17:20:10.260Z,11.38
2019-04-03T17:22:41.194Z,11.27
2019-04-03T17:25:10.680Z,11.37
2019-04-03T17:27:40.259Z,11.34
2019-04-03T17:30:11.262Z,11.30
2019-04-03T17:32:40.930Z,11.31
2019-04-03T17:35:11.781Z,11.24
2019-04-03T17:37:41.215Z,11.25
2019-04-03T17:40:10.847Z,11.24
2019-04-03T17:42:40.361Z,11.09
2019-04-03T17:45:09.868Z,11.09
2019-04-03T17:47:39.098Z,11.05
2019-04-03T17:50:08.378Z,11.04
2019-04-03T17:52:37.673Z,10.92
2019-04-03T17:55:10.901Z,10.88
2019-04-03T17:57:40.277Z,10.90
2019-04-03T18:00:20.527Z,10.94
2019-04-03T18:02:49.016Z,10.85
2019-04-03T18:05:18.204Z,10.78
2019-04-03T18:07:47.427Z,10.79
2019-04-03T18:10:16.623Z,10.69
2019-04-03T18:12:46.134Z,10.66
2019-04-03T18:15:15.844Z,10.52
2019-04-03T18:17:45.926Z,10.48
2019-04-03T18:20:15.203Z,10.48
2019-04-03T18:22:44.362Z,10.36
2019-04-03T18:25:13.605Z,10.28
2019-04-03T18:27:42.970Z,10.33
2019-04-03T18:30:12.707Z,10.36
2019-04-03T18:32:43.836Z,10.36
2019-04-03T18:35:14.853Z,10.38
2019-04-03T18:37:44.084Z,10.26
2019-04-03T18:40:15.097Z,10.25
2019-04-03T18:42:44.361Z,10.31
2019-04-03T18:45:24.513Z,10.26
2019-04-03T18:47:46.598Z,10.15
2019-04-03T18:50:16.229Z,10.13
2019-04-03T18:52:45.814Z,10.14
2019-04-03T18:55:15.270Z,10.10
2019-04-03T18:57:44.535Z,10.07
2019-04-03T19:00:14.001Z,10.01
2019-04-03T19:02:43.334Z,9.95
2019-04-03T19:05:14.313Z,9.91
2019-04-03T19:07:45.888Z,9.84
2019-04-03T19:10:14.570Z,9.78
2019-04-03T19:12:43.898Z,9.73
2019-04-03T19:15:14.769Z,9.71
2019-04-03T19:17:44.069Z,9.67
2019-04-03T19:20:13.614Z,9.63
2019-04-03T19:22:42.779Z,9.60
2019-04-03T19:25:12.053Z,9.56
2019-04-03T19:27:41.284Z,9.51
2019-04-03T19:30:10.686Z,9.51
2019-04-03T19:32:42.874Z,9.46
2019-04-03T19:35:11.674Z,9.41
2019-04-03T19:37:40.969Z,9.40
2019-04-03T19:40:10.731Z,9.39
2019-04-03T19:42:40.040Z,9.39
2019-04-03T19:45:09.293Z,9.35
2019-04-03T19:47:38.573Z,9.33
2019-04-03T19:50:09.242Z,9.30
2019-04-03T19:52:41.447Z,9.24
2019-04-03T19:55:09.566Z,9.26
2019-04-03T19:57:38.791Z,9.20
2019-04-03T20:00:09.812Z,9.18
2019-04-03T20:02:42.669Z,9.14
2019-04-03T20:05:11.347Z,9.11
2019-04-03T20:07:40.554Z,9.12
2019-04-03T20:10:10.709Z,9.12
2019-04-03T20:12:39.942Z,9.05
2019-04-03T20:15:09.298Z,9.00
2019-04-03T20:17:38.871Z,8.91
2019-04-03T20:20:08.370Z,8.92
2019-04-03T20:22:41.910Z,8.91
2019-04-03T20:25:08.640Z,8.84
2019-04-03T20:27:38.099Z,8.91
2019-04-03T20:30:09.170Z,8.88
2019-04-03T20:32:40.851Z,8.86
2019-04-03T20:35:09.850Z,8.80
2019-04-03T20:37:39.131Z,8.74
2019-04-03T20:40:08.493Z,8.69
2019-04-03T20:42:40.770Z,8.72
2019-04-03T20:45:09.401Z,8.75
2019-04-03T20:47:38.722Z,8.75
2019-04-03T20:50:08.491Z,8.72
2019-04-03T20:52:37.692Z,8.75
2019-04-03T20:55:07.672Z,8.64
2019-04-03T20:57:36.876Z,8.65
2019-04-03T21:00:13.417Z,8.67
2019-04-03T21:02:42.698Z,8.68
2019-04-03T21:05:18.571Z,8.64
2019-04-03T21:07:47.747Z,8.61
2019-04-03T21:10:16.905Z,8.52
2019-04-03T21:12:46.102Z,8.52
2019-04-03T21:15:15.291Z,8.51
2019-04-03T21:17:44.525Z,8.50
2019-04-03T21:20:13.752Z,8.51
2019-04-03T21:22:43.779Z,8.48
2019-04-03T21:25:13.256Z,8.46
2019-04-03T21:27:42.462Z,8.45
2019-04-03T21:30:11.893Z,8.40
2019-04-03T21:32:41.115Z,8.38
2019-04-03T21:35:10.322Z,8.33
2019-04-03T21:37:40.472Z,8.34
2019-04-03T21:40:10.030Z,8.30
2019-04-03T21:42:39.242Z,8.31
2019-04-03T21:45:08.413Z,8.34
2019-04-03T21:47:37.608Z,8.31
2019-04-03T21:50:07.039Z,8.35
2019-04-03T21:52:36.240Z,8.36
2019-04-03T21:55:08.344Z,8.36
2019-04-03T21:57:38.482Z,8.34
2019-04-03T22:00:13.084Z,8.35
2019-04-03T22:02:44.906Z,8.31
2019-04-03T22:05:12.906Z,8.32
2019-04-03T22:07:42.298Z,8.23
2019-04-03T22:10:11.446Z,8.21
2019-04-03T22:12:40.639Z,8.06
2019-04-03T22:15:09.858Z,8.09
2019-04-03T22:17:39.123Z,8.07
2019-04-03T22:20:08.342Z,8.11
2019-04-03T22:22:37.639Z,8.02
2019-04-03T22:25:09.035Z,7.99
2019-04-03T22:27:38.337Z,8.00
2019-04-03T22:30:07.626Z,7.84
2019-04-03T22:32:36.853Z,7.85
2019-04-03T22:35:07.226Z,7.83
2019-04-03T22:37:36.456Z,7.69
2019-04-03T22:40:09.819Z,7.59
2019-04-03T22:42:37.480Z,7.66
2019-04-03T22:45:06.741Z,7.68
2019-04-03T22:47:36.193Z,7.65
2019-04-03T22:50:06.165Z,7.56
2019-04-03T22:52:35.310Z,7.39
2019-04-03T22:55:05.840Z,7.31
2019-04-03T22:57:35.050Z,7.32
2019-04-03T23:00:06.826Z,7.26
2019-04-03T23:02:36.090Z,7.24
2019-04-03T23:05:06.481Z,7.17
2019-04-03T23:07:35.754Z,7.19
2019-04-03T23:10:06.928Z,7.17
2019-04-03T23:12:36.111Z,7.16
2019-04-03T23:15:08.702Z,7.13
2019-04-03T23:17:37.320Z,7.08
2019-04-03T23:20:06.729Z,7.02
2019-04-03T23:22:36.018Z,7.02
2019-04-03T23:25:06.958Z,7.07
2019-04-03T23:27:36.154Z,7.13
2019-04-03T23:30:09.922Z,7.01
2019-04-03T23:32:37.970Z,7.07
2019-04-03T23:35:07.339Z,6.99
2019-04-03T23:37:43.852Z,6.91
2019-04-03T23:40:13.468Z,6.89
2019-04-03T23:42:42.745Z,6.88
2019-04-03T23:45:12.863Z,6.86
2019-04-03T23:47:41.991Z,6.94
2019-04-03T23:50:11.279Z,6.96
2019-04-03T23:52:40.605Z,6.97
2019-04-03T23:55:09.852Z,6.99
2019-04-03T23:57:40.339Z,7.00
